sensor_id;sensor_type;location;lat;lon;timestamp;P1;durP1;ratioP1;P2;durP2;ratioP2
22752;SDS011;11543;43.144;24.684;2024-03-17T00:01:51;21.45;;;14.23;;
22752;SDS011;11543;43.144;24.684;2024-03-17T00:04:17;26.50;;;16.20;;
22752;SDS011;11543;43.144;24.684;2024-03-17T00:06:44;24.65;;;14.48;;
22752;SDS011;11543;43.144;24.684;2024-03-17T00:09:10;19.33;;;13.57;;
22752;SDS011;11543;43.144;24.684;2024-03-17T00:11:35;18.98;;;13.13;;
22752;SDS011;11543;43.144;24.684;2024-03-17T00:14:01;19.67;;;13.13;;
22752;SDS011;11543;43.144;24.684;2024-03-17T00:16:27;19.95;;;13.43;;
22752;SDS011;11543;43.144;24.684;2024-03-17T00:18:53;18.05;;;12.43;;
22752;SDS011;11543;43.144;24.684;2024-03-17T00:21:18;21.60;;;14.75;;
22752;SDS011;11543;43.144;24.684;2024-03-17T00:23:46;26.45;;;17.00;;
22752;SDS011;11543;43.144;24.684;2024-03-17T00:26:14;31.50;;;17.92;;
22752;SDS011;11543;43.144;24.684;2024-03-17T00:28:40;42.83;;;22.95;;
22752;SDS011;11543;43.144;24.684;2024-03-17T00:31:05;46.72;;;24.00;;
22752;SDS011;11543;43.144;24.684;2024-03-17T00:33:31;34.22;;;19.40;;
22752;SDS011;11543;43.144;24.684;2024-03-17T00:35:56;29.90;;;17.27;;
22752;SDS011;11543;43.144;24.684;2024-03-17T00:38:24;27.02;;;15.27;;
22752;SDS011;11543;43.144;24.684;2024-03-17T00:40:49;22.92;;;15.00;;
22752;SDS011;11543;43.144;24.684;2024-03-17T00:43:15;23.88;;;15.00;;
22752;SDS011;11543;43.144;24.684;2024-03-17T00:45:41;28.80;;;16.05;;
22752;SDS011;11543;43.144;24.684;2024-03-17T00:48:06;27.30;;;15.75;;
22752;SDS011;11543;43.144;24.684;2024-03-17T00:50:32;23.80;;;14.85;;
22752;SDS011;11543;43.144;24.684;2024-03-17T00:52:58;22.05;;;13.77;;
22752;SDS011;11543;43.144;24.684;2024-03-17T00:55:23;25.65;;;14.98;;
22752;SDS011;11543;43.144;24.684;2024-03-17T00:57:49;25.15;;;15.00;;
22752;SDS011;11543;43.144;24.684;2024-03-17T01:00:14;28.95;;;16.75;;
22752;SDS011;11543;43.144;24.684;2024-03-17T01:02:40;26.55;;;15.02;;
22752;SDS011;11543;43.144;24.684;2024-03-17T01:05:06;22.40;;;14.75;;
22752;SDS011;11543;43.144;24.684;2024-03-17T01:07:32;20.35;;;13.10;;
22752;SDS011;11543;43.144;24.684;2024-03-17T01:09:58;24.27;;;14.07;;
22752;SDS011;11543;43.144;24.684;2024-03-17T01:12:24;22.85;;;14.50;;
22752;SDS011;11543;43.144;24.684;2024-03-17T01:14:50;24.42;;;16.20;;
22752;SDS011;11543;43.144;24.684;2024-03-17T01:17:15;25.00;;;16.23;;
22752;SDS011;11543;43.144;24.684;2024-03-17T01:19:42;25.10;;;16.70;;
22752;SDS011;11543;43.144;24.684;2024-03-17T01:22:08;26.00;;;15.68;;
22752;SDS011;11543;43.144;24.684;2024-03-17T01:24:33;23.30;;;15.32;;
22752;SDS011;11543;43.144;24.684;2024-03-17T01:26:59;31.02;;;16.23;;
22752;SDS011;11543;43.144;24.684;2024-03-17T01:29:25;25.08;;;16.48;;
22752;SDS011;11543;43.144;24.684;2024-03-17T01:31:51;28.85;;;17.23;;
22752;SDS011;11543;43.144;24.684;2024-03-17T01:34:18;31.67;;;18.70;;
22752;SDS011;11543;43.144;24.684;2024-03-17T01:36:47;28.85;;;16.67;;
22752;SDS011;11543;43.144;24.684;2024-03-17T01:39:12;26.08;;;16.20;;
22752;SDS011;11543;43.144;24.684;2024-03-17T01:41:38;24.80;;;15.32;;
22752;SDS011;11543;43.144;24.684;2024-03-17T01:44:04;26.15;;;15.48;;
22752;SDS011;11543;43.144;24.684;2024-03-17T01:46:30;25.60;;;15.35;;
22752;SDS011;11543;43.144;24.684;2024-03-17T01:48:55;33.92;;;20.42;;
22752;SDS011;11543;43.144;24.684;2024-03-17T01:51:21;49.10;;;24.40;;
22752;SDS011;11543;43.144;24.684;2024-03-17T01:53:47;60.47;;;26.67;;
22752;SDS011;11543;43.144;24.684;2024-03-17T01:56:13;61.10;;;28.10;;
22752;SDS011;11543;43.144;24.684;2024-03-17T01:58:44;48.88;;;24.35;;
22752;SDS011;11543;43.144;24.684;2024-03-17T02:01:13;47.97;;;23.60;;
22752;SDS011;11543;43.144;24.684;2024-03-17T02:03:41;51.47;;;23.65;;
22752;SDS011;11543;43.144;24.684;2024-03-17T02:06:07;42.20;;;21.45;;
22752;SDS011;11543;43.144;24.684;2024-03-17T02:08:47;32.33;;;18.17;;
22752;SDS011;11543;43.144;24.684;2024-03-17T02:11:32;37.72;;;19.42;;
22752;SDS011;11543;43.144;24.684;2024-03-17T02:13:59;38.53;;;19.77;;
22752;SDS011;11543;43.144;24.684;2024-03-17T02:16:26;35.70;;;19.52;;
22752;SDS011;11543;43.144;24.684;2024-03-17T02:18:55;35.28;;;19.83;;
22752;SDS011;11543;43.144;24.684;2024-03-17T02:21:21;35.28;;;19.60;;
22752;SDS011;11543;43.144;24.684;2024-03-17T02:23:52;37.67;;;21.40;;
22752;SDS011;11543;43.144;24.684;2024-03-17T02:26:18;35.65;;;20.55;;
22752;SDS011;11543;43.144;24.684;2024-03-17T02:28:44;35.67;;;20.98;;
22752;SDS011;11543;43.144;24.684;2024-03-17T02:31:12;33.92;;;20.08;;
22752;SDS011;11543;43.144;24.684;2024-03-17T02:33:40;34.00;;;21.02;;
22752;SDS011;11543;43.144;24.684;2024-03-17T02:36:05;37.22;;;21.73;;
22752;SDS011;11543;43.144;24.684;2024-03-17T02:38:37;51.33;;;25.38;;
22752;SDS011;11543;43.144;24.684;2024-03-17T02:41:25;49.85;;;24.30;;
22752;SDS011;11543;43.144;24.684;2024-03-17T02:43:51;56.28;;;27.05;;
22752;SDS011;11543;43.144;24.684;2024-03-17T02:46:18;52.03;;;25.58;;
22752;SDS011;11543;43.144;24.684;2024-03-17T02:48:50;45.88;;;24.00;;
22752;SDS011;11543;43.144;24.684;2024-03-17T02:51:18;40.67;;;21.80;;
22752;SDS011;11543;43.144;24.684;2024-03-17T02:53:45;51.17;;;24.02;;
22752;SDS011;11543;43.144;24.684;2024-03-17T02:56:11;66.75;;;27.65;;
22752;SDS011;11543;43.144;24.684;2024-03-17T02:58:38;58.03;;;24.80;;
22752;SDS011;11543;43.144;24.684;2024-03-17T03:01:04;41.70;;;18.90;;
22752;SDS011;11543;43.144;24.684;2024-03-17T03:03:31;41.40;;;18.55;;
22752;SDS011;11543;43.144;24.684;2024-03-17T03:05:57;41.17;;;17.55;;
22752;SDS011;11543;43.144;24.684;2024-03-17T03:08:24;45.35;;;19.40;;
22752;SDS011;11543;43.144;24.684;2024-03-17T03:10:50;87.35;;;28.77;;
22752;SDS011;11543;43.144;24.684;2024-03-17T03:13:16;73.75;;;27.48;;
22752;SDS011;11543;43.144;24.684;2024-03-17T03:15:41;43.83;;;20.30;;
22752;SDS011;11543;43.144;24.684;2024-03-17T03:18:07;38.42;;;19.80;;
22752;SDS011;11543;43.144;24.684;2024-03-17T03:20:33;36.83;;;20.65;;
22752;SDS011;11543;43.144;24.684;2024-03-17T03:22:59;34.47;;;20.02;;
22752;SDS011;11543;43.144;24.684;2024-03-17T03:25:25;37.63;;;19.92;;
22752;SDS011;11543;43.144;24.684;2024-03-17T03:27:50;37.97;;;22.58;;
22752;SDS011;11543;43.144;24.684;2024-03-17T03:30:16;40.45;;;21.80;;
22752;SDS011;11543;43.144;24.684;2024-03-17T03:32:51;31.15;;;18.25;;
22752;SDS011;11543;43.144;24.684;2024-03-17T03:35:17;41.53;;;22.15;;
22752;SDS011;11543;43.144;24.684;2024-03-17T03:37:43;87.78;;;36.75;;
22752;SDS011;11543;43.144;24.684;2024-03-17T03:40:08;125.78;;;50.58;;
22752;SDS011;11543;43.144;24.684;2024-03-17T03:42:43;94.00;;;41.00;;
22752;SDS011;11543;43.144;24.684;2024-03-17T03:45:09;58.45;;;28.30;;
22752;SDS011;11543;43.144;24.684;2024-03-17T03:47:38;42.25;;;22.42;;
22752;SDS011;11543;43.144;24.684;2024-03-17T03:50:06;38.67;;;22.05;;
22752;SDS011;11543;43.144;24.684;2024-03-17T03:52:34;47.90;;;26.13;;
22752;SDS011;11543;43.144;24.684;2024-03-17T03:55:06;48.65;;;27.63;;
22752;SDS011;11543;43.144;24.684;2024-03-17T03:57:35;64.20;;;32.42;;
22752;SDS011;11543;43.144;24.684;2024-03-17T04:00:02;59.72;;;33.00;;
22752;SDS011;11543;43.144;24.684;2024-03-17T04:02:37;53.55;;;30.15;;
22752;SDS011;11543;43.144;24.684;2024-03-17T04:05:04;48.92;;;28.98;;
22752;SDS011;11543;43.144;24.684;2024-03-17T04:07:30;37.25;;;22.42;;
22752;SDS011;11543;43.144;24.684;2024-03-17T04:09:55;29.25;;;18.38;;
22752;SDS011;11543;43.144;24.684;2024-03-17T04:12:21;19.52;;;12.95;;
22752;SDS011;11543;43.144;24.684;2024-03-17T04:14:46;16.85;;;11.05;;
22752;SDS011;11543;43.144;24.684;2024-03-17T04:17:17;20.50;;;12.30;;
22752;SDS011;11543;43.144;24.684;2024-03-17T04:19:44;28.67;;;16.70;;
22752;SDS011;11543;43.144;24.684;2024-03-17T04:22:10;23.27;;;14.65;;
22752;SDS011;11543;43.144;24.684;2024-03-17T04:24:36;19.40;;;12.75;;
22752;SDS011;11543;43.144;24.684;2024-03-17T04:27:02;27.48;;;16.30;;
22752;SDS011;11543;43.144;24.684;2024-03-17T04:29:29;23.00;;;13.77;;
22752;SDS011;11543;43.144;24.684;2024-03-17T04:31:55;33.13;;;18.65;;
22752;SDS011;11543;43.144;24.684;2024-03-17T04:34:20;23.95;;;13.90;;
22752;SDS011;11543;43.144;24.684;2024-03-17T04:36:46;32.88;;;16.73;;
22752;SDS011;11543;43.144;24.684;2024-03-17T04:39:12;37.38;;;19.63;;
22752;SDS011;11543;43.144;24.684;2024-03-17T04:41:37;38.45;;;21.45;;
22752;SDS011;11543;43.144;24.684;2024-03-17T04:44:05;35.13;;;19.65;;
22752;SDS011;11543;43.144;24.684;2024-03-17T04:46:31;30.92;;;17.85;;
22752;SDS011;11543;43.144;24.684;2024-03-17T04:48:57;30.45;;;18.40;;
22752;SDS011;11543;43.144;24.684;2024-03-17T04:51:23;27.27;;;16.70;;
22752;SDS011;11543;43.144;24.684;2024-03-17T04:53:48;29.00;;;18.10;;
22752;SDS011;11543;43.144;24.684;2024-03-17T04:56:14;35.42;;;20.15;;
22752;SDS011;11543;43.144;24.684;2024-03-17T04:58:39;35.67;;;19.80;;
22752;SDS011;11543;43.144;24.684;2024-03-17T05:01:05;29.75;;;18.33;;
22752;SDS011;11543;43.144;24.684;2024-03-17T05:03:34;27.45;;;17.83;;
22752;SDS011;11543;43.144;24.684;2024-03-17T05:06:01;33.85;;;21.05;;
22752;SDS011;11543;43.144;24.684;2024-03-17T05:08:28;37.72;;;23.27;;
22752;SDS011;11543;43.144;24.684;2024-03-17T05:10:58;47.25;;;28.38;;
22752;SDS011;11543;43.144;24.684;2024-03-17T05:13:25;79.20;;;43.42;;
22752;SDS011;11543;43.144;24.684;2024-03-17T05:15:51;158.63;;;84.35;;
22752;SDS011;11543;43.144;24.684;2024-03-17T05:18:17;141.65;;;72.22;;
22752;SDS011;11543;43.144;24.684;2024-03-17T05:20:42;116.25;;;61.60;;
22752;SDS011;11543;43.144;24.684;2024-03-17T05:23:08;93.05;;;50.22;;
22752;SDS011;11543;43.144;24.684;2024-03-17T05:25:33;67.63;;;37.75;;
22752;SDS011;11543;43.144;24.684;2024-03-17T05:28:02;51.97;;;30.83;;
22752;SDS011;11543;43.144;24.684;2024-03-17T05:30:27;53.38;;;29.80;;
22752;SDS011;11543;43.144;24.684;2024-03-17T05:32:53;45.58;;;27.20;;
22752;SDS011;11543;43.144;24.684;2024-03-17T05:35:18;45.95;;;26.98;;
22752;SDS011;11543;43.144;24.684;2024-03-17T05:37:44;44.30;;;25.70;;
22752;SDS011;11543;43.144;24.684;2024-03-17T05:40:10;54.35;;;28.70;;
22752;SDS011;11543;43.144;24.684;2024-03-17T05:42:41;52.55;;;29.08;;
22752;SDS011;11543;43.144;24.684;2024-03-17T05:45:08;48.17;;;28.08;;
22752;SDS011;11543;43.144;24.684;2024-03-17T05:47:37;53.15;;;30.35;;
22752;SDS011;11543;43.144;24.684;2024-03-17T05:50:06;55.20;;;32.85;;
22752;SDS011;11543;43.144;24.684;2024-03-17T05:52:32;55.42;;;33.45;;
22752;SDS011;11543;43.144;24.684;2024-03-17T05:54:57;53.63;;;32.70;;
22752;SDS011;11543;43.144;24.684;2024-03-17T05:57:23;47.50;;;30.83;;
22752;SDS011;11543;43.144;24.684;2024-03-17T05:59:49;42.92;;;26.40;;
22752;SDS011;11543;43.144;24.684;2024-03-17T06:02:15;40.80;;;24.52;;
22752;SDS011;11543;43.144;24.684;2024-03-17T06:04:41;34.30;;;21.63;;
22752;SDS011;11543;43.144;24.684;2024-03-17T06:07:06;32.28;;;20.98;;
22752;SDS011;11543;43.144;24.684;2024-03-17T06:09:32;35.17;;;20.67;;
22752;SDS011;11543;43.144;24.684;2024-03-17T06:11:58;39.85;;;23.08;;
22752;SDS011;11543;43.144;24.684;2024-03-17T06:14:23;47.55;;;26.90;;
22752;SDS011;11543;43.144;24.684;2024-03-17T06:16:49;50.10;;;27.85;;
22752;SDS011;11543;43.144;24.684;2024-03-17T06:19:14;58.67;;;29.52;;
22752;SDS011;11543;43.144;24.684;2024-03-17T06:21:40;48.17;;;28.23;;
22752;SDS011;11543;43.144;24.684;2024-03-17T06:24:06;50.03;;;29.23;;
22752;SDS011;11543;43.144;24.684;2024-03-17T06:26:32;54.83;;;29.10;;
22752;SDS011;11543;43.144;24.684;2024-03-17T06:29:00;46.03;;;27.98;;
22752;SDS011;11543;43.144;24.684;2024-03-17T06:31:25;47.42;;;29.08;;
22752;SDS011;11543;43.144;24.684;2024-03-17T06:33:51;41.80;;;26.52;;
22752;SDS011;11543;43.144;24.684;2024-03-17T06:36:16;40.75;;;26.48;;
22752;SDS011;11543;43.144;24.684;2024-03-17T06:38:42;35.00;;;23.90;;
22752;SDS011;11543;43.144;24.684;2024-03-17T06:41:11;35.00;;;24.02;;
22752;SDS011;11543;43.144;24.684;2024-03-17T06:43:40;32.22;;;21.75;;
22752;SDS011;11543;43.144;24.684;2024-03-17T06:46:07;32.38;;;20.90;;
22752;SDS011;11543;43.144;24.684;2024-03-17T06:48:33;29.70;;;19.77;;
22752;SDS011;11543;43.144;24.684;2024-03-17T06:50:58;30.38;;;20.02;;
22752;SDS011;11543;43.144;24.684;2024-03-17T06:53:24;30.38;;;20.10;;
22752;SDS011;11543;43.144;24.684;2024-03-17T06:55:58;28.70;;;18.20;;
22752;SDS011;11543;43.144;24.684;2024-03-17T06:58:25;27.23;;;18.05;;
22752;SDS011;11543;43.144;24.684;2024-03-17T07:00:56;32.55;;;20.80;;
22752;SDS011;11543;43.144;24.684;2024-03-17T07:03:23;28.75;;;18.90;;
22752;SDS011;11543;43.144;24.684;2024-03-17T07:05:53;29.10;;;18.00;;
22752;SDS011;11543;43.144;24.684;2024-03-17T07:08:22;26.52;;;18.48;;
22752;SDS011;11543;43.144;24.684;2024-03-17T07:10:59;27.15;;;18.30;;
22752;SDS011;11543;43.144;24.684;2024-03-17T07:13:38;24.20;;;17.13;;
22752;SDS011;11543;43.144;24.684;2024-03-17T07:16:05;27.15;;;17.95;;
22752;SDS011;11543;43.144;24.684;2024-03-17T07:18:31;25.98;;;17.73;;
22752;SDS011;11543;43.144;24.684;2024-03-17T07:20:57;25.85;;;17.52;;
22752;SDS011;11543;43.144;24.684;2024-03-17T07:23:24;26.13;;;16.85;;
22752;SDS011;11543;43.144;24.684;2024-03-17T07:25:51;24.02;;;15.90;;
22752;SDS011;11543;43.144;24.684;2024-03-17T07:28:18;23.38;;;15.55;;
22752;SDS011;11543;43.144;24.684;2024-03-17T07:30:48;29.15;;;16.35;;
22752;SDS011;11543;43.144;24.684;2024-03-17T07:33:21;22.25;;;14.82;;
22752;SDS011;11543;43.144;24.684;2024-03-17T07:35:51;24.50;;;16.02;;
22752;SDS011;11543;43.144;24.684;2024-03-17T07:40:45;20.55;;;13.73;;
22752;SDS011;11543;43.144;24.684;2024-03-17T07:43:20;23.05;;;14.93;;
22752;SDS011;11543;43.144;24.684;2024-03-17T07:45:45;20.58;;;13.95;;
22752;SDS011;11543;43.144;24.684;2024-03-17T07:48:12;20.40;;;13.75;;
22752;SDS011;11543;43.144;24.684;2024-03-17T07:50:38;21.50;;;13.75;;
22752;SDS011;11543;43.144;24.684;2024-03-17T07:53:04;18.58;;;13.02;;
22752;SDS011;11543;43.144;24.684;2024-03-17T07:55:30;19.42;;;13.45;;
22752;SDS011;11543;43.144;24.684;2024-03-17T07:57:56;20.60;;;13.10;;
22752;SDS011;11543;43.144;24.684;2024-03-17T08:00:23;20.20;;;13.65;;
22752;SDS011;11543;43.144;24.684;2024-03-17T08:02:49;18.55;;;12.52;;
22752;SDS011;11543;43.144;24.684;2024-03-17T08:05:14;16.95;;;12.70;;
22752;SDS011;11543;43.144;24.684;2024-03-17T08:07:40;16.83;;;12.05;;
22752;SDS011;11543;43.144;24.684;2024-03-17T08:10:07;17.35;;;11.93;;
22752;SDS011;11543;43.144;24.684;2024-03-17T08:12:33;15.32;;;11.57;;
22752;SDS011;11543;43.144;24.684;2024-03-17T08:14:59;14.88;;;11.18;;
22752;SDS011;11543;43.144;24.684;2024-03-17T08:17:25;18.15;;;12.23;;
22752;SDS011;11543;43.144;24.684;2024-03-17T08:19:50;17.70;;;12.00;;
22752;SDS011;11543;43.144;24.684;2024-03-17T08:22:16;15.98;;;11.02;;
22752;SDS011;11543;43.144;24.684;2024-03-17T08:24:42;17.10;;;11.77;;
22752;SDS011;11543;43.144;24.684;2024-03-17T08:27:08;21.52;;;16.08;;
22752;SDS011;11543;43.144;24.684;2024-03-17T08:29:34;15.80;;;10.80;;
22752;SDS011;11543;43.144;24.684;2024-03-17T08:31:59;17.08;;;12.27;;
22752;SDS011;11543;43.144;24.684;2024-03-17T08:34:25;14.80;;;10.00;;
22752;SDS011;11543;43.144;24.684;2024-03-17T08:36:51;15.38;;;9.88;;
22752;SDS011;11543;43.144;24.684;2024-03-17T08:39:16;12.48;;;8.90;;
22752;SDS011;11543;43.144;24.684;2024-03-17T08:41:42;13.88;;;11.05;;
22752;SDS011;11543;43.144;24.684;2024-03-17T08:44:09;10.57;;;7.68;;
22752;SDS011;11543;43.144;24.684;2024-03-17T08:46:35;12.13;;;6.75;;
22752;SDS011;11543;43.144;24.684;2024-03-17T08:49:00;9.65;;;7.28;;
22752;SDS011;11543;43.144;24.684;2024-03-17T08:51:26;9.43;;;6.85;;
22752;SDS011;11543;43.144;24.684;2024-03-17T08:53:52;8.20;;;5.53;;
22752;SDS011;11543;43.144;24.684;2024-03-17T08:56:18;5.72;;;3.83;;
22752;SDS011;11543;43.144;24.684;2024-03-17T08:58:45;4.85;;;3.30;;
22752;SDS011;11543;43.144;24.684;2024-03-17T09:01:11;5.57;;;3.65;;
22752;SDS011;11543;43.144;24.684;2024-03-17T09:03:40;4.95;;;3.45;;
22752;SDS011;11543;43.144;24.684;2024-03-17T09:06:15;3.97;;;3.10;;
22752;SDS011;11543;43.144;24.684;2024-03-17T09:08:41;7.03;;;4.47;;
22752;SDS011;11543;43.144;24.684;2024-03-17T09:11:11;9.52;;;6.70;;
22752;SDS011;11543;43.144;24.684;2024-03-17T09:13:38;7.22;;;4.97;;
22752;SDS011;11543;43.144;24.684;2024-03-17T09:16:03;5.55;;;4.20;;
22752;SDS011;11543;43.144;24.684;2024-03-17T09:18:29;6.45;;;4.45;;
22752;SDS011;11543;43.144;24.684;2024-03-17T09:23:25;8.57;;;4.40;;
22752;SDS011;11543;43.144;24.684;2024-03-17T09:25:59;10.90;;;6.70;;
22752;SDS011;11543;43.144;24.684;2024-03-17T09:28:26;8.38;;;5.50;;
22752;SDS011;11543;43.144;24.684;2024-03-17T09:30:52;8.38;;;4.75;;
22752;SDS011;11543;43.144;24.684;2024-03-17T09:33:21;8.75;;;5.00;;
22752;SDS011;11543;43.144;24.684;2024-03-17T09:36:06;6.95;;;5.00;;
22752;SDS011;11543;43.144;24.684;2024-03-17T09:38:33;5.95;;;4.00;;
22752;SDS011;11543;43.144;24.684;2024-03-17T09:41:00;6.43;;;4.25;;
22752;SDS011;11543;43.144;24.684;2024-03-17T09:43:29;6.70;;;4.57;;
22752;SDS011;11543;43.144;24.684;2024-03-17T09:45:56;5.93;;;4.22;;
22752;SDS011;11543;43.144;24.684;2024-03-17T09:48:27;4.57;;;3.70;;
22752;SDS011;11543;43.144;24.684;2024-03-17T09:50:57;5.72;;;3.47;;
22752;SDS011;11543;43.144;24.684;2024-03-17T09:55:58;6.53;;;4.20;;
22752;SDS011;11543;43.144;24.684;2024-03-17T09:58:25;5.72;;;3.78;;
22752;SDS011;11543;43.144;24.684;2024-03-17T10:00:51;5.63;;;4.10;;
22752;SDS011;11543;43.144;24.684;2024-03-17T10:06:21;6.05;;;4.13;;
22752;SDS011;11543;43.144;24.684;2024-03-17T10:08:48;4.70;;;3.38;;
22752;SDS011;11543;43.144;24.684;2024-03-17T10:11:16;4.75;;;3.50;;
22752;SDS011;11543;43.144;24.684;2024-03-17T10:14:08;5.07;;;3.00;;
22752;SDS011;11543;43.144;24.684;2024-03-17T10:16:35;4.40;;;3.30;;
22752;SDS011;11543;43.144;24.684;2024-03-17T10:19:24;4.53;;;3.17;;
22752;SDS011;11543;43.144;24.684;2024-03-17T10:21:59;3.70;;;2.60;;
22752;SDS011;11543;43.144;24.684;2024-03-17T10:24:26;3.38;;;2.25;;
22752;SDS011;11543;43.144;24.684;2024-03-17T10:26:56;2.88;;;2.30;;
22752;SDS011;11543;43.144;24.684;2024-03-17T10:32:13;3.17;;;1.90;;
22752;SDS011;11543;43.144;24.684;2024-03-17T10:34:44;3.42;;;2.15;;
22752;SDS011;11543;43.144;24.684;2024-03-17T10:37:13;3.22;;;2.00;;
22752;SDS011;11543;43.144;24.684;2024-03-17T10:39:41;3.53;;;2.05;;
22752;SDS011;11543;43.144;24.684;2024-03-17T10:42:09;2.53;;;1.77;;
22752;SDS011;11543;43.144;24.684;2024-03-17T10:44:37;3.00;;;2.30;;
22752;SDS011;11543;43.144;24.684;2024-03-17T10:47:04;2.72;;;2.22;;
22752;SDS011;11543;43.144;24.684;2024-03-17T10:49:37;3.20;;;2.40;;
22752;SDS011;11543;43.144;24.684;2024-03-17T10:52:05;3.13;;;2.15;;
22752;SDS011;11543;43.144;24.684;2024-03-17T10:54:40;4.05;;;2.55;;
22752;SDS011;11543;43.144;24.684;2024-03-17T10:57:17;3.20;;;2.38;;
22752;SDS011;11543;43.144;24.684;2024-03-17T11:00:05;2.88;;;2.28;;
22752;SDS011;11543;43.144;24.684;2024-03-17T11:02:33;3.25;;;2.30;;
22752;SDS011;11543;43.144;24.684;2024-03-17T11:05:25;3.45;;;2.30;;
22752;SDS011;11543;43.144;24.684;2024-03-17T11:07:51;5.53;;;2.45;;
22752;SDS011;11543;43.144;24.684;2024-03-17T11:10:27;3.58;;;2.45;;
22752;SDS011;11543;43.144;24.684;2024-03-17T11:12:54;2.97;;;2.20;;
22752;SDS011;11543;43.144;24.684;2024-03-17T11:20:35;3.35;;;2.40;;
22752;SDS011;11543;43.144;24.684;2024-03-17T11:23:05;3.78;;;2.17;;
22752;SDS011;11543;43.144;24.684;2024-03-17T11:27:59;3.65;;;2.10;;
22752;SDS011;11543;43.144;24.684;2024-03-17T11:38:54;3.17;;;2.10;;
22752;SDS011;11543;43.144;24.684;2024-03-17T11:46:52;2.75;;;2.13;;
22752;SDS011;11543;43.144;24.684;2024-03-17T11:51:53;2.40;;;1.90;;
22752;SDS011;11543;43.144;24.684;2024-03-17T11:54:24;2.30;;;1.80;;
22752;SDS011;11543;43.144;24.684;2024-03-17T11:56:52;3.53;;;2.03;;
22752;SDS011;11543;43.144;24.684;2024-03-17T11:59:23;3.22;;;2.50;;
22752;SDS011;11543;43.144;24.684;2024-03-17T12:01:49;2.78;;;2.20;;
22752;SDS011;11543;43.144;24.684;2024-03-17T12:04:16;3.08;;;2.30;;
22752;SDS011;11543;43.144;24.684;2024-03-17T12:06:51;2.72;;;2.10;;
22752;SDS011;11543;43.144;24.684;2024-03-17T12:11:51;2.70;;;1.60;;
22752;SDS011;11543;43.144;24.684;2024-03-17T12:14:20;2.47;;;1.77;;
22752;SDS011;11543;43.144;24.684;2024-03-17T12:19:21;3.05;;;2.20;;
22752;SDS011;11543;43.144;24.684;2024-03-17T12:21:50;3.63;;;2.00;;
22752;SDS011;11543;43.144;24.684;2024-03-17T12:24:18;2.55;;;1.98;;
22752;SDS011;11543;43.144;24.684;2024-03-17T12:26:46;3.30;;;2.10;;
22752;SDS011;11543;43.144;24.684;2024-03-17T12:29:26;3.25;;;2.15;;
22752;SDS011;11543;43.144;24.684;2024-03-17T12:31:59;3.60;;;1.90;;
22752;SDS011;11543;43.144;24.684;2024-03-17T12:34:28;2.50;;;1.90;;
22752;SDS011;11543;43.144;24.684;2024-03-17T12:36:55;2.65;;;2.00;;
22752;SDS011;11543;43.144;24.684;2024-03-17T12:39:23;2.83;;;1.90;;
22752;SDS011;11543;43.144;24.684;2024-03-17T12:42:12;2.65;;;1.80;;
22752;SDS011;11543;43.144;24.684;2024-03-17T12:44:48;3.53;;;2.10;;
22752;SDS011;11543;43.144;24.684;2024-03-17T12:49:53;3.03;;;1.77;;
22752;SDS011;11543;43.144;24.684;2024-03-17T12:52:25;2.92;;;1.70;;
22752;SDS011;11543;43.144;24.684;2024-03-17T12:57:45;3.03;;;1.73;;
22752;SDS011;11543;43.144;24.684;2024-03-17T13:00:30;2.38;;;1.67;;
22752;SDS011;11543;43.144;24.684;2024-03-17T13:02:57;2.22;;;1.52;;
22752;SDS011;11543;43.144;24.684;2024-03-17T13:05:23;2.00;;;1.60;;
22752;SDS011;11543;43.144;24.684;2024-03-17T13:07:49;2.28;;;1.83;;
22752;SDS011;11543;43.144;24.684;2024-03-17T13:10:18;2.15;;;1.55;;
22752;SDS011;11543;43.144;24.684;2024-03-17T13:12:45;2.72;;;1.73;;
22752;SDS011;11543;43.144;24.684;2024-03-17T13:15:15;2.45;;;1.67;;
22752;SDS011;11543;43.144;24.684;2024-03-17T13:17:44;2.58;;;1.90;;
22752;SDS011;11543;43.144;24.684;2024-03-17T13:20:14;2.75;;;1.77;;
22752;SDS011;11543;43.144;24.684;2024-03-17T13:22:44;4.38;;;2.92;;
22752;SDS011;11543;43.144;24.684;2024-03-17T13:25:17;3.90;;;2.58;;
22752;SDS011;11543;43.144;24.684;2024-03-17T13:27:44;5.03;;;2.70;;
22752;SDS011;11543;43.144;24.684;2024-03-17T13:30:13;4.75;;;3.20;;
22752;SDS011;11543;43.144;24.684;2024-03-17T13:35:19;4.13;;;2.45;;
22752;SDS011;11543;43.144;24.684;2024-03-17T13:37:45;4.40;;;2.40;;
22752;SDS011;11543;43.144;24.684;2024-03-17T13:40:12;4.10;;;2.63;;
22752;SDS011;11543;43.144;24.684;2024-03-17T13:42:42;4.18;;;3.10;;
22752;SDS011;11543;43.144;24.684;2024-03-17T13:45:11;6.95;;;3.13;;
22752;SDS011;11543;43.144;24.684;2024-03-17T13:47:38;4.40;;;3.38;;
22752;SDS011;11543;43.144;24.684;2024-03-17T13:50:10;4.57;;;3.35;;
22752;SDS011;11543;43.144;24.684;2024-03-17T13:52:38;4.50;;;3.30;;
22752;SDS011;11543;43.144;24.684;2024-03-17T13:55:20;6.65;;;3.25;;
22752;SDS011;11543;43.144;24.684;2024-03-17T13:57:49;4.20;;;3.10;;
22752;SDS011;11543;43.144;24.684;2024-03-17T14:00:25;5.03;;;3.03;;
22752;SDS011;11543;43.144;24.684;2024-03-17T14:05:22;5.53;;;3.42;;
22752;SDS011;11543;43.144;24.684;2024-03-17T14:07:50;4.60;;;3.00;;
22752;SDS011;11543;43.144;24.684;2024-03-17T14:10:19;3.95;;;2.95;;
22752;SDS011;11543;43.144;24.684;2024-03-17T14:12:46;3.42;;;2.20;;
22752;SDS011;11543;43.144;24.684;2024-03-17T14:15:13;2.97;;;2.47;;
22752;SDS011;11543;43.144;24.684;2024-03-17T14:17:40;3.78;;;2.72;;
22752;SDS011;11543;43.144;24.684;2024-03-17T14:20:07;4.15;;;2.88;;
22752;SDS011;11543;43.144;24.684;2024-03-17T14:22:36;4.85;;;3.13;;
22752;SDS011;11543;43.144;24.684;2024-03-17T14:25:06;3.15;;;2.45;;
22752;SDS011;11543;43.144;24.684;2024-03-17T14:27:32;3.35;;;2.80;;
22752;SDS011;11543;43.144;24.684;2024-03-17T14:29:59;3.92;;;2.78;;
22752;SDS011;11543;43.144;24.684;2024-03-17T14:32:24;5.05;;;3.30;;
22752;SDS011;11543;43.144;24.684;2024-03-17T14:34:50;4.30;;;2.90;;
22752;SDS011;11543;43.144;24.684;2024-03-17T14:37:18;5.00;;;3.17;;
22752;SDS011;11543;43.144;24.684;2024-03-17T14:39:44;4.20;;;3.22;;
22752;SDS011;11543;43.144;24.684;2024-03-17T14:42:10;4.15;;;3.10;;
22752;SDS011;11543;43.144;24.684;2024-03-17T14:44:36;4.10;;;3.20;;
22752;SDS011;11543;43.144;24.684;2024-03-17T14:47:02;4.82;;;3.50;;
22752;SDS011;11543;43.144;24.684;2024-03-17T14:49:29;4.90;;;3.60;;
22752;SDS011;11543;43.144;24.684;2024-03-17T14:51:57;5.38;;;3.47;;
22752;SDS011;11543;43.144;24.684;2024-03-17T14:54:23;5.35;;;3.72;;
22752;SDS011;11543;43.144;24.684;2024-03-17T14:56:48;5.47;;;3.40;;
22752;SDS011;11543;43.144;24.684;2024-03-17T14:59:14;4.18;;;3.00;;
22752;SDS011;11543;43.144;24.684;2024-03-17T15:01:43;4.32;;;3.45;;
22752;SDS011;11543;43.144;24.684;2024-03-17T15:04:10;6.10;;;3.25;;
22752;SDS011;11543;43.144;24.684;2024-03-17T15:06:35;4.00;;;3.08;;
22752;SDS011;11543;43.144;24.684;2024-03-17T15:09:01;3.60;;;2.88;;
22752;SDS011;11543;43.144;24.684;2024-03-17T15:11:28;4.18;;;3.00;;
22752;SDS011;11543;43.144;24.684;2024-03-17T15:13:53;4.55;;;3.10;;
22752;SDS011;11543;43.144;24.684;2024-03-17T15:16:18;4.82;;;3.35;;